This is the latest recevied weather packets stored in our database for station/object SP4FDH-13. If no packets are shown the sender has not sent any weather packets the latest 10 day(s).
| Time | Temp. | Humidity | Pressure | Rain* | Wind** | Luminosity | Snow |
|---|---|---|---|---|---|---|---|
| 1777270895 | 12.22° C | 49% | 1018.1 hPa | - | - | - | - |
| 1777270319 | 11.67° C | 52% | 1018.3 hPa | - | - | - | - |
| 1777269741 | 11.11° C | 54% | 1018.5 hPa | - | - | - | - |
| 1777269164 | 11.11° C | 54% | 1018.5 hPa | - | - | - | - |
| 1777268589 | 11.11° C | 53% | 1018.4 hPa | - | - | - | - |
| 1777268013 | 10° C | 56% | 1018.6 hPa | - | - | - | - |
| 1777267438 | 9.44° C | 56% | 1018.6 hPa | - | - | - | - |
| 1777266863 | 8.33° C | 59% | 1018.7 hPa | - | - | - | - |
| 1777266285 | 7.78° C | 58% | 1018.7 hPa | - | - | - | - |
| 1777265710 | 7.22° C | 61% | 1018.7 hPa | - | - | - | - |
| 1777265133 | 6.11° C | 65% | 1018.8 hPa | - | - | - | - |
| 1777264555 | 5.56° C | 66% | 1018.8 hPa | - | - | - | - |
| 1777263979 | 5° C | 68% | 1018.9 hPa | - | - | - | - |
| 1777263402 | 4.44° C | 69% | 1018.8 hPa | - | - | - | - |
| 1777262826 | 4.44° C | 71% | 1018.9 hPa | - | - | - | - |
| 1777262249 | 4.44° C | 68% | 1018.7 hPa | - | - | - | - |
| 1777261673 | 4.44° C | 68% | 1018.6 hPa | - | - | - | - |
| 1777261096 | 4.44° C | 67% | 1018.4 hPa | - | - | - | - |
| 1777260520 | 4.44° C | 71% | 1018.7 hPa | - | - | - | - |
| 1777259943 | 4.44° C | 69% | 1018.5 hPa | - | - | - | - |
| 1777259366 | 3.89° C | 68% | 1018.4 hPa | - | - | - | - |
| 1777258790 | 3.89° C | 68% | 1018.6 hPa | - | - | - | - |
| 1777258212 | 3.89° C | 69% | 1018.6 hPa | - | - | - | - |
| 1777257635 | 3.89° C | 69% | 1018.6 hPa | - | - | - | - |
| 1777257058 | 3.89° C | 72% | 1018.7 hPa | - | - | - | - |
* Rain since midnight (hover to see other rain measurements)
** Current wind speed in m/s (hover to see current wind gust speed)